createdAt,value
2019-05-13T00:00:10.055Z,4.97
2019-05-13T00:02:36.833Z,6.77
2019-05-13T00:05:04.016Z,6.50
2019-05-13T00:07:34.095Z,7.60
2019-05-13T00:10:00.626Z,10.77
2019-05-13T00:12:27.690Z,6.30
2019-05-13T00:14:54.723Z,6.07
2019-05-13T00:17:23.567Z,9.50
2019-05-13T00:19:50.611Z,6.27
2019-05-13T00:22:17.535Z,4.63
2019-05-13T00:24:44.610Z,7.60
2019-05-13T00:27:14.134Z,9.73
2019-05-13T00:29:44.252Z,6.97
2019-05-13T00:32:10.678Z,7.00
2019-05-13T00:34:37.490Z,8.27
2019-05-13T00:37:10.750Z,6.27
2019-05-13T00:39:33.856Z,7.60
2019-05-13T00:42:00.734Z,9.67
2019-05-13T00:44:28.142Z,9.63
2019-05-13T00:46:55.167Z,7.13
2019-05-13T00:49:23.851Z,7.37
2019-05-13T00:51:50.837Z,8.67
2019-05-13T00:54:17.620Z,7.23
2019-05-13T00:56:44.667Z,9.73
2019-05-13T00:59:14.012Z,9.50
2019-05-13T01:01:40.490Z,5.20
2019-05-13T01:04:08.303Z,13.93
2019-05-13T01:06:35.130Z,6.67
2019-05-13T01:09:04.139Z,8.57
2019-05-13T01:11:34.252Z,9.87
2019-05-13T01:14:00.895Z,6.50
2019-05-13T01:16:27.706Z,4.40
2019-05-13T01:18:54.522Z,10.23
2019-05-13T01:21:23.867Z,8.17
2019-05-13T01:23:50.954Z,11.10
2019-05-13T01:26:17.762Z,7.83
2019-05-13T01:28:44.541Z,8.50
2019-05-13T01:31:48.607Z,6.83
2019-05-13T01:34:15.418Z,7.60
2019-05-13T01:36:44.487Z,8.93
2019-05-13T01:39:13.709Z,9.87
2019-05-13T01:41:54.118Z,11.50
2019-05-13T01:44:21.149Z,9.67
2019-05-13T01:46:47.974Z,16.20
2019-05-13T01:49:14.911Z,12.83
2019-05-13T01:51:43.860Z,8.30
2019-05-13T01:54:14.015Z,11.67
2019-05-13T01:56:41.338Z,6.37
2019-05-13T01:59:08.405Z,11.07
2019-05-13T02:01:35.233Z,12.27
2019-05-13T02:04:03.923Z,11.77
2019-05-13T02:06:33.536Z,10.03
2019-05-13T02:08:59.723Z,7.97
2019-05-13T02:11:26.866Z,7.83
2019-05-13T02:13:54.136Z,11.23
2019-05-13T02:16:21.310Z,7.60
2019-05-13T02:18:48.160Z,11.33
2019-05-13T02:21:15.072Z,12.97
2019-05-13T02:23:44.139Z,7.87
2019-05-13T02:26:13.434Z,15.00
2019-05-13T02:28:40.129Z,13.17
2019-05-13T02:31:06.949Z,10.77
2019-05-13T02:33:34.234Z,10.87
2019-05-13T02:36:02.899Z,15.47
2019-05-13T02:38:34.845Z,9.77
2019-05-13T02:41:02.582Z,10.50
2019-05-13T02:43:32.959Z,12.00
2019-05-13T02:45:58.802Z,6.67
2019-05-13T02:48:25.629Z,17.73
2019-05-13T02:50:53.536Z,11.20
2019-05-13T02:53:23.659Z,9.20
2019-05-13T02:55:52.453Z,13.60
2019-05-13T02:58:18.830Z,10.00
2019-05-13T03:00:45.744Z,9.40
2019-05-13T03:03:13.676Z,10.30
2019-05-13T03:05:42.832Z,13.53
2019-05-13T03:08:12.597Z,7.93
2019-05-13T03:10:39.358Z,15.33
2019-05-13T03:13:06.233Z,10.27
2019-05-13T03:15:44.745Z,8.20
2019-05-13T03:18:13.351Z,16.47
2019-05-13T03:20:42.881Z,11.27
2019-05-13T03:23:09.120Z,12.50
2019-05-13T03:25:35.935Z,9.57
2019-05-13T03:28:03.570Z,13.07
2019-05-13T03:30:35.241Z,11.97
2019-05-13T03:33:07.966Z,10.87
2019-05-13T03:35:29.030Z,11.40
2019-05-13T03:38:12.463Z,13.40
2019-05-13T03:40:42.619Z,14.77
2019-05-13T03:43:12.579Z,11.53
2019-05-13T03:45:39.505Z,15.13
2019-05-13T03:48:06.507Z,14.37
2019-05-13T03:50:34.526Z,13.03
2019-05-13T03:53:03.047Z,13.10
2019-05-13T03:55:32.845Z,16.23
2019-05-13T03:58:02.607Z,7.93
2019-05-13T04:00:28.003Z,8.97
2019-05-13T04:02:55.022Z,13.33
2019-05-13T04:05:23.269Z,11.53
2019-05-13T04:07:52.275Z,11.20
2019-05-13T04:10:22.414Z,15.10
2019-05-13T04:12:47.946Z,10.30
2019-05-13T04:15:15.259Z,11.77
2019-05-13T04:17:42.883Z,14.73
2019-05-13T04:20:12.662Z,9.47
2019-05-13T04:22:42.331Z,11.07
2019-05-13T04:25:08.557Z,8.63
2019-05-13T04:27:36.271Z,11.53
2019-05-13T04:30:05.059Z,19.17
2019-05-13T04:32:33.584Z,13.53
2019-05-13T04:35:03.747Z,9.90
2019-05-13T04:37:32.637Z,11.27
2019-05-13T04:39:58.438Z,8.17
2019-05-13T04:42:25.746Z,14.33
2019-05-13T04:44:53.445Z,21.67
2019-05-13T04:47:22.990Z,20.23
2019-05-13T04:49:49.416Z,11.37
2019-05-13T04:52:16.498Z,12.27
2019-05-13T04:54:44.013Z,12.77
2019-05-13T04:57:12.351Z,13.67
2019-05-13T04:59:44.198Z,14.83
2019-05-13T05:02:54.544Z,11.23
2019-05-13T05:05:54.559Z,12.83
2019-05-13T05:08:37.338Z,10.50
2019-05-13T05:11:47.652Z,10.93
2019-05-13T05:14:33.933Z,13.73
2019-05-13T05:17:34.584Z,10.03
2019-05-13T05:20:27.857Z,12.10
2019-05-13T05:23:11.148Z,9.03
2019-05-13T05:26:02.577Z,12.27
2019-05-13T05:29:02.333Z,13.00
2019-05-13T05:32:02.141Z,12.00
2019-05-13T05:35:06.623Z,10.70
2019-05-13T05:38:12.063Z,8.27
2019-05-13T05:40:42.580Z,13.33
2019-05-13T05:43:11.609Z,15.83
2019-05-13T05:45:41.179Z,11.37
2019-05-13T05:48:11.841Z,15.30
2019-05-13T05:50:42.395Z,12.93
2019-05-13T05:53:11.217Z,11.00
2019-05-13T05:55:41.218Z,11.47
2019-05-13T05:58:12.076Z,7.50
2019-05-13T06:00:41.478Z,14.23
2019-05-13T06:03:08.537Z,7.80
2019-05-13T06:05:36.006Z,13.33
2019-05-13T06:08:03.204Z,11.17
2019-05-13T06:10:44.235Z,9.77
2019-05-13T06:13:01.812Z,11.13
2019-05-13T06:15:31.487Z,12.73
2019-05-13T06:17:58.491Z,11.60
2019-05-13T06:20:27.166Z,10.43
2019-05-13T06:22:54.293Z,10.20
2019-05-13T06:25:23.411Z,12.53
2019-05-13T06:27:51.247Z,13.17
2019-05-13T06:30:18.461Z,9.97
2019-05-13T06:32:45.295Z,10.70
2019-05-13T06:35:12.470Z,10.07
2019-05-13T06:37:41.436Z,13.70
2019-05-13T06:40:08.433Z,11.37
2019-05-13T06:42:35.513Z,11.50
2019-05-13T06:45:02.586Z,10.60
2019-05-13T06:47:32.515Z,10.33
2019-05-13T06:49:59.308Z,15.50
2019-05-13T06:52:26.129Z,11.77
2019-05-13T06:54:52.934Z,11.17
2019-05-13T06:57:21.975Z,13.00
2019-05-13T06:59:49.456Z,9.40
2019-05-13T07:02:16.695Z,10.13
2019-05-13T07:04:43.591Z,16.43
2019-05-13T07:07:16.961Z,11.93
2019-05-13T07:09:39.336Z,12.00
2019-05-13T07:12:06.187Z,12.00
2019-05-13T07:14:33.014Z,10.40
2019-05-13T07:17:01.996Z,12.20
2019-05-13T07:19:28.700Z,11.33
2019-05-13T07:21:55.507Z,9.87
2019-05-13T07:24:22.385Z,13.13
2019-05-13T07:26:49.205Z,10.90
2019-05-13T07:29:16.507Z,10.93
2019-05-13T07:31:44.263Z,9.17
2019-05-13T07:34:11.710Z,9.20
2019-05-13T07:36:39.038Z,8.97
2019-05-13T07:39:07.470Z,7.50
2019-05-13T07:41:39.195Z,11.18
2019-05-13T07:44:04.026Z,8.25
2019-05-13T07:46:32.291Z,8.00
2019-05-13T07:49:01.919Z,11.12
2019-05-13T07:51:28.126Z,8.58
2019-05-13T07:53:54.974Z,6.80
2019-05-13T07:56:22.046Z,6.90
2019-05-13T07:58:48.910Z,7.97
2019-05-13T08:01:15.735Z,9.43
2019-05-13T08:03:42.902Z,7.35
2019-05-13T08:06:11.140Z,7.17
2019-05-13T08:08:38.451Z,6.53
2019-05-13T08:11:05.437Z,10.28
2019-05-13T08:13:32.275Z,7.40
2019-05-13T08:16:01.672Z,8.98
2019-05-13T08:18:28.311Z,9.87
2019-05-13T08:20:55.102Z,6.77
2019-05-13T08:23:21.934Z,11.63
2019-05-13T08:25:51.327Z,7.60
2019-05-13T08:28:18.042Z,6.80
2019-05-13T08:30:45.105Z,7.22
2019-05-13T08:33:12.468Z,9.10
2019-05-13T08:35:41.746Z,8.03
2019-05-13T08:38:08.416Z,10.03
2019-05-13T08:40:35.527Z,11.83
2019-05-13T08:43:02.609Z,6.92
2019-05-13T08:45:31.481Z,9.18
2019-05-13T08:47:58.535Z,10.25
2019-05-13T08:50:25.391Z,8.03
2019-05-13T08:52:52.210Z,7.60
2019-05-13T08:55:21.469Z,8.40
2019-05-13T08:57:48.004Z,7.35
2019-05-13T09:00:21.859Z,9.20
2019-05-13T09:02:48.693Z,7.10
2019-05-13T09:05:15.814Z,10.18
2019-05-13T09:07:42.634Z,8.83
2019-05-13T09:10:09.548Z,9.33
2019-05-13T09:12:40.182Z,6.70
2019-05-13T09:15:05.955Z,9.13
2019-05-13T09:17:32.928Z,7.50
2019-05-13T09:20:02.499Z,8.85
2019-05-13T09:22:28.582Z,7.40
2019-05-13T09:24:55.419Z,5.65
2019-05-13T09:27:22.655Z,9.48
2019-05-13T09:29:51.847Z,7.90
2019-05-13T09:32:21.335Z,9.78
2019-05-13T09:34:47.773Z,7.08
2019-05-13T09:37:14.966Z,4.35
2019-05-13T09:39:41.804Z,5.50
2019-05-13T09:42:08.858Z,5.33
2019-05-13T09:44:35.735Z,6.35
2019-05-13T09:47:03.008Z,6.55
2019-05-13T09:49:32.983Z,9.63
2019-05-13T09:52:01.439Z,4.58
2019-05-13T09:54:27.670Z,8.18
2019-05-13T09:56:54.630Z,5.85
2019-05-13T09:59:22.149Z,7.07
2019-05-13T10:01:51.686Z,5.47
2019-05-13T10:04:17.999Z,4.80
2019-05-13T10:06:44.983Z,6.77
2019-05-13T10:09:12.690Z,7.30
2019-05-13T10:11:39.769Z,6.30
2019-05-13T10:14:06.726Z,5.90
2019-05-13T10:16:33.542Z,7.83
2019-05-13T10:19:01.640Z,6.30
2019-05-13T10:21:29.083Z,5.00
2019-05-13T10:23:58.822Z,3.97
2019-05-13T10:29:48.600Z,4.12
2019-05-13T10:32:15.765Z,6.97
2019-05-13T10:34:44.397Z,4.22
2019-05-13T10:37:11.561Z,5.78
2019-05-13T10:39:38.686Z,2.77
2019-05-13T10:42:05.619Z,3.37
2019-05-13T10:44:32.556Z,5.17
2019-05-13T10:46:59.478Z,5.83
2019-05-13T10:49:28.177Z,2.63
2019-05-13T10:51:55.140Z,6.60
2019-05-13T10:54:22.095Z,3.97
2019-05-13T10:56:48.921Z,4.23
2019-05-13T10:59:15.805Z,3.20
2019-05-13T11:01:42.886Z,4.47
2019-05-13T11:04:13.319Z,4.60
2019-05-13T11:06:38.653Z,2.42
2019-05-13T11:09:06.774Z,4.95
2019-05-13T11:11:33.689Z,5.22
2019-05-13T11:14:10.204Z,4.15
2019-05-13T11:16:29.341Z,3.25
2019-05-13T11:18:56.352Z,4.93
2019-05-13T11:21:23.181Z,3.23
2019-05-13T11:23:51.870Z,2.67
2019-05-13T11:26:18.798Z,2.97
2019-05-13T11:28:45.670Z,4.17
2019-05-13T11:31:12.571Z,6.43
2019-05-13T11:33:42.320Z,5.67
2019-05-13T11:36:08.214Z,2.73
2019-05-13T11:38:35.075Z,3.40
2019-05-13T11:41:02.728Z,4.17
2019-05-13T11:43:33.124Z,3.42
2019-05-13T11:46:02.296Z,3.07
2019-05-13T11:48:28.529Z,2.63
2019-05-13T11:50:55.311Z,4.10
2019-05-13T11:53:38.356Z,3.47
2019-05-13T11:55:52.264Z,3.13
2019-05-13T11:58:19.404Z,6.47
2019-05-13T12:00:53.316Z,2.83
2019-05-13T12:03:23.041Z,4.28
2019-05-13T12:05:53.434Z,3.17
2019-05-13T12:08:22.464Z,3.95
2019-05-13T12:10:47.857Z,2.90
2019-05-13T12:13:14.857Z,5.03
2019-05-13T12:15:48.685Z,4.03
2019-05-13T12:18:12.684Z,3.77
2019-05-13T12:20:41.962Z,2.40
2019-05-13T12:23:08.328Z,3.30
2019-05-13T12:25:36.290Z,3.83
2019-05-13T12:28:03.480Z,3.57
2019-05-13T12:30:33.705Z,3.03
2019-05-13T12:32:59.114Z,1.50
2019-05-13T12:35:25.921Z,3.13
2019-05-13T12:37:53.443Z,4.10
2019-05-13T12:40:23.101Z,2.83
2019-05-13T12:42:53.661Z,5.27
2019-05-13T12:45:18.690Z,3.97
2019-05-13T12:47:45.486Z,5.20
2019-05-13T12:50:13.849Z,3.50
2019-05-13T12:52:43.788Z,3.53
2019-05-13T12:55:13.774Z,5.03
2019-05-13T12:57:38.833Z,2.17
2019-05-13T13:00:06.674Z,2.60
2019-05-13T13:02:33.692Z,4.20
2019-05-13T13:05:14.101Z,3.67
2019-05-13T13:07:32.465Z,3.07
2019-05-13T13:09:58.299Z,3.07
2019-05-13T13:12:34.381Z,3.70
2019-05-13T13:14:54.659Z,2.47
2019-05-13T13:17:24.072Z,3.93
2019-05-13T13:19:54.728Z,2.90
2019-05-13T13:22:25.319Z,1.70
2019-05-13T13:24:55.742Z,2.63
2019-05-13T13:27:37.084Z,4.10
2019-05-13T13:29:48.337Z,3.22
2019-05-13T13:32:15.218Z,3.25
2019-05-13T13:34:44.007Z,1.37
2019-05-13T13:37:11.041Z,2.40
2019-05-13T13:39:38.399Z,5.13
2019-05-13T13:42:05.935Z,1.60
2019-05-13T13:44:35.005Z,4.60
2019-05-13T13:47:02.290Z,1.53
2019-05-13T13:49:33.727Z,2.83
2019-05-13T13:51:57.858Z,2.70
2019-05-13T13:54:24.860Z,2.17
2019-05-13T13:56:56.017Z,4.47
2019-05-13T13:59:24.753Z,3.33
2019-05-13T14:01:54.538Z,3.63
2019-05-13T14:04:18.687Z,1.63
2019-05-13T14:09:14.271Z,3.53
2019-05-13T14:11:41.955Z,3.47
2019-05-13T14:14:09.428Z,2.03
2019-05-13T14:16:36.441Z,3.73
2019-05-13T14:19:03.758Z,1.80
2019-05-13T14:21:32.419Z,3.10
2019-05-13T14:23:59.476Z,3.27
2019-05-13T14:26:26.499Z,1.87
2019-05-13T14:28:53.849Z,3.40
2019-05-13T14:31:21.570Z,3.23
2019-05-13T14:33:48.830Z,2.03
2019-05-13T14:36:17.577Z,4.10
2019-05-13T14:38:44.362Z,2.83
2019-05-13T14:41:12.290Z,2.00
2019-05-13T14:43:39.587Z,2.02
2019-05-13T14:46:06.407Z,4.47
2019-05-13T14:48:33.287Z,2.90
2019-05-13T14:51:01.877Z,1.50
2019-05-13T14:53:28.842Z,1.30
2019-05-13T14:55:55.814Z,0.88
2019-05-13T14:58:23.047Z,3.25
2019-05-13T15:01:10.428Z,2.83
2019-05-13T15:03:18.659Z,2.90
2019-05-13T15:05:45.544Z,2.72
2019-05-13T15:08:12.592Z,2.37
2019-05-13T15:10:41.761Z,3.62
2019-05-13T15:13:08.499Z,2.93
2019-05-13T15:15:35.496Z,2.33
2019-05-13T15:18:02.374Z,2.33
2019-05-13T15:20:29.239Z,2.37
2019-05-13T15:22:56.172Z,4.40
2019-05-13T15:25:23.104Z,1.77
2019-05-13T15:27:52.784Z,10.47
2019-05-13T15:30:21.847Z,1.07
2019-05-13T15:32:48.940Z,2.53
2019-05-13T15:35:16.012Z,2.13
2019-05-13T15:37:43.198Z,2.13
2019-05-13T15:40:11.736Z,3.40
2019-05-13T15:42:39.137Z,2.80
2019-05-13T15:45:07.599Z,2.53
2019-05-13T15:47:34.661Z,3.20
2019-05-13T15:50:02.397Z,1.67
2019-05-13T15:52:31.720Z,1.13
2019-05-13T15:54:58.714Z,2.67
2019-05-13T15:57:25.559Z,2.77
2019-05-13T15:59:52.521Z,1.23
2019-05-13T16:02:19.353Z,1.47
2019-05-13T16:04:52.560Z,0.87
2019-05-13T16:07:14.877Z,3.10
2019-05-13T16:09:42.167Z,3.23
2019-05-13T16:12:09.255Z,1.57
2019-05-13T16:14:36.152Z,1.20
2019-05-13T16:17:03.245Z,1.60
2019-05-13T16:19:32.690Z,2.13
2019-05-13T16:22:01.190Z,2.93
2019-05-13T16:24:27.828Z,1.10
2019-05-13T16:26:54.779Z,2.03
2019-05-13T16:29:22.542Z,1.60
2019-05-13T16:31:51.861Z,1.93
2019-05-13T16:34:19.146Z,2.40
2019-05-13T16:36:45.989Z,2.83
2019-05-13T16:39:12.827Z,2.00
2019-05-13T16:41:42.395Z,1.70
2019-05-13T16:44:08.562Z,4.77
2019-05-13T16:46:35.645Z,2.43
2019-05-13T16:49:02.556Z,1.50
2019-05-13T16:51:31.613Z,1.47
2019-05-13T16:53:58.234Z,2.17
2019-05-13T16:56:29.790Z,1.37
2019-05-13T16:58:53.979Z,3.40
2019-05-13T17:01:21.929Z,1.53
2019-05-13T17:03:51.179Z,3.30
2019-05-13T17:06:18.029Z,4.50
2019-05-13T17:08:45.190Z,2.53
2019-05-13T17:11:12.046Z,1.97
2019-05-13T17:13:39.008Z,1.30
2019-05-13T17:16:06.897Z,1.43
2019-05-13T17:18:33.741Z,1.13
2019-05-13T17:21:01.448Z,1.83
2019-05-13T17:23:28.457Z,1.37
2019-05-13T17:25:55.368Z,1.70
2019-05-13T17:28:22.205Z,1.67
2019-05-13T17:30:49.218Z,0.70
2019-05-13T17:33:16.141Z,1.53
2019-05-13T17:35:42.943Z,2.20
2019-05-13T17:38:11.374Z,0.90
2019-05-13T17:40:38.628Z,0.70
2019-05-13T17:43:05.424Z,1.87
2019-05-13T17:45:32.223Z,3.40
2019-05-13T17:48:00.924Z,1.13
2019-05-13T17:50:28.055Z,1.50
2019-05-13T17:52:54.965Z,1.03
2019-05-13T17:55:22.325Z,1.27
2019-05-13T17:57:49.409Z,3.70
2019-05-13T18:00:16.630Z,1.00
2019-05-13T18:02:43.488Z,1.93
2019-05-13T18:05:12.071Z,1.67
2019-05-13T18:07:39.222Z,1.37
2019-05-13T18:10:06.282Z,2.43
2019-05-13T18:12:33.125Z,1.37
2019-05-13T18:15:02.256Z,1.40
2019-05-13T18:17:31.038Z,1.50
2019-05-13T18:19:57.424Z,2.50
2019-05-13T18:22:25.336Z,1.53
2019-05-13T18:24:52.417Z,1.83
2019-05-13T18:27:21.884Z,1.63
2019-05-13T18:29:48.355Z,2.07
2019-05-13T18:32:15.282Z,1.07
2019-05-13T18:34:42.107Z,1.67
2019-05-13T18:37:11.613Z,2.57
2019-05-13T18:39:37.699Z,2.03
2019-05-13T18:42:04.708Z,1.90
2019-05-13T18:44:31.842Z,2.33
2019-05-13T18:47:01.308Z,2.87
2019-05-13T18:49:27.479Z,2.23
2019-05-13T18:51:54.553Z,3.30
2019-05-13T18:54:21.883Z,1.30
2019-05-13T18:56:48.875Z,1.27
2019-05-13T18:59:15.721Z,1.20
2019-05-13T19:01:42.703Z,1.83
2019-05-13T19:04:11.505Z,1.33
2019-05-13T19:06:38.382Z,2.87
2019-05-13T19:09:05.959Z,1.57
2019-05-13T19:11:32.777Z,2.10
2019-05-13T19:14:00.127Z,1.17
2019-05-13T19:16:26.968Z,3.53
2019-05-13T19:18:53.839Z,1.37
2019-05-13T19:21:21.881Z,0.83
2019-05-13T19:23:51.181Z,1.77
2019-05-13T19:26:21.801Z,1.53
2019-05-13T19:28:51.439Z,1.53
2019-05-13T19:31:17.770Z,0.90
2019-05-13T19:33:44.621Z,1.00
2019-05-13T19:36:11.862Z,1.30
2019-05-13T19:38:38.950Z,0.90
2019-05-13T19:41:05.998Z,0.73
2019-05-13T19:43:33.034Z,0.83
2019-05-13T19:46:01.590Z,4.10
2019-05-13T19:48:29.028Z,1.30
2019-05-13T19:50:56.081Z,1.03
2019-05-13T19:53:22.936Z,1.03
2019-05-13T19:55:51.860Z,1.27
2019-05-13T19:58:18.785Z,1.73
2019-05-13T20:00:45.591Z,2.07
2019-05-13T20:03:12.406Z,1.00
2019-05-13T20:05:41.255Z,2.20
2019-05-13T20:08:08.114Z,1.33
2019-05-13T20:10:35.244Z,1.00
2019-05-13T20:13:02.150Z,0.87
2019-05-13T20:15:31.374Z,1.73
2019-05-13T20:18:01.315Z,0.97
2019-05-13T20:20:27.725Z,0.93
2019-05-13T20:22:54.832Z,2.43
2019-05-13T20:25:21.935Z,1.70
2019-05-13T20:27:48.789Z,2.07
2019-05-13T20:30:16.126Z,2.53
2019-05-13T20:32:43.201Z,1.83
2019-05-13T20:35:11.533Z,1.13
2019-05-13T20:37:38.574Z,4.03
2019-05-13T20:40:05.486Z,1.43
2019-05-13T20:42:32.396Z,0.83
2019-05-13T20:44:59.211Z,1.43
2019-05-13T20:47:26.018Z,1.67
2019-05-13T20:50:01.479Z,1.30
2019-05-13T20:52:22.222Z,0.93
2019-05-13T20:54:51.147Z,1.47
2019-05-13T20:57:18.215Z,4.07
2019-05-13T20:59:45.157Z,2.93
2019-05-13T21:02:12.521Z,2.00
2019-05-13T21:04:39.570Z,2.10
2019-05-13T21:07:06.423Z,2.17
2019-05-13T21:09:33.229Z,1.90
2019-05-13T21:12:01.800Z,4.67
2019-05-13T21:14:28.777Z,5.00
2019-05-13T21:16:55.605Z,1.77
2019-05-13T21:19:22.399Z,2.47
2019-05-13T21:21:51.073Z,1.47
2019-05-13T21:24:17.946Z,1.70
2019-05-13T21:26:44.769Z,1.63
2019-05-13T21:29:11.633Z,2.40
2019-05-13T21:31:38.564Z,1.53
2019-05-13T21:34:05.378Z,3.40
2019-05-13T21:36:32.294Z,5.13
2019-05-13T21:39:01.131Z,3.77
2019-05-13T21:41:27.946Z,2.43
2019-05-13T21:43:54.824Z,3.87
2019-05-13T21:46:21.633Z,3.17
2019-05-13T21:48:49.422Z,3.60
2019-05-13T21:51:16.462Z,9.13
2019-05-13T21:53:43.292Z,4.27
2019-05-13T21:56:12.154Z,3.80
2019-05-13T21:58:38.857Z,5.00
2019-05-13T22:01:05.685Z,2.57
2019-05-13T22:03:33.582Z,4.10
2019-05-13T22:06:01.911Z,3.33
2019-05-13T22:08:29.082Z,4.37
2019-05-13T22:10:55.911Z,1.83
2019-05-13T22:13:22.839Z,3.23
2019-05-13T22:15:52.166Z,4.70
2019-05-13T22:18:18.586Z,3.17
2019-05-13T22:20:50.242Z,3.30
2019-05-13T22:23:14.498Z,2.53
2019-05-13T22:25:43.656Z,1.77
2019-05-13T22:28:11.821Z,2.90
2019-05-13T22:30:40.742Z,3.70
2019-05-13T22:33:07.721Z,3.67
2019-05-13T22:35:34.544Z,4.50
2019-05-13T22:38:01.701Z,2.50
2019-05-13T22:40:28.765Z,2.70
2019-05-13T22:42:56.592Z,3.70
2019-05-13T22:45:24.143Z,3.37
2019-05-13T22:47:52.058Z,5.80
2019-05-13T22:50:19.145Z,1.67
2019-05-13T22:52:46.305Z,2.97
2019-05-13T22:55:13.626Z,2.10
2019-05-13T22:57:41.924Z,4.07
2019-05-13T23:00:11.662Z,2.93
2019-05-13T23:02:42.057Z,4.07
2019-05-13T23:05:11.137Z,2.30
2019-05-13T23:07:37.472Z,3.37
2019-05-13T23:10:04.683Z,3.57
2019-05-13T23:12:31.529Z,1.90
2019-05-13T23:14:58.419Z,3.50
2019-05-13T23:17:25.238Z,4.23
2019-05-13T23:19:52.397Z,6.20
2019-05-13T23:22:19.295Z,3.40
2019-05-13T23:24:46.315Z,7.37
2019-05-13T23:27:14.825Z,3.37
2019-05-13T23:29:41.809Z,3.03
2019-05-13T23:32:08.617Z,1.47
2019-05-13T23:34:35.494Z,5.00
2019-05-13T23:37:02.392Z,3.17
2019-05-13T23:39:29.237Z,2.40
2019-05-13T23:41:56.289Z,3.43
2019-05-13T23:44:27.845Z,3.17
2019-05-13T23:46:52.430Z,6.17
2019-05-13T23:49:21.100Z,2.30
2019-05-13T23:51:48.220Z,2.60
2019-05-13T23:54:15.304Z,5.67
2019-05-13T23:56:42.104Z,6.17
2019-05-13T23:59:11.169Z,2.97
